Aviation Digital Data Service (ADDS)

Output produced by TAFs form (0123 UTC 23 July 2017)
found at http://www.aviationweather.gov/adds/tafs/
 
METAR text: RJTF 230100Z 20007KT 160V220 9999 FEW025 BKN170 28/22 Q1007
Conditions at: RJTF (CHOFU AIRPORT , JP) observed 0100 UTC 23 July 2017
Temperature: 28.0°C (82°F)
Dewpoint: 22.0°C (72°F) [RH = 70%]
Pressure (altimeter): 29.73 inches Hg (1007.0 mb)
Winds: from the SSW (200 degrees) at 8 MPH (7 knots; 3.6 m/s)
Visibility: 6 or more miles (10+ km)
Ceiling: 17000 feet AGL
Clouds: few clouds at 2500 feet AGL
broken clouds at 17000 feet AGL
Weather: no significant weather observed at this time